Time;durP1;ratioP1;P1;durP2;ratioP2;P2;SDS_P1;SDS_P2;PMS_P1;PMS_P2;Temp;Humidity;BMP_temperature;BMP_pressure;BME280_temperature;BME280_humidity;BME280_pressure;Samples;Min_cycle;Max_cycle;Signal;HPM_P1;HPM_P2
2023/09/24 00:01:36;;;;;;;3.85;1.80;;;;;;;;;;4973506;28;20051;-64
2023/09/24 00:04:02;;;;;;;5.87;2.47;;;;;;;;;;4969030;28;20063;-64
2023/09/24 00:06:30;;;;;;;4.22;1.83;;;;;;;;;;4974879;28;20157;-65
2023/09/24 00:08:56;;;;;;;4.18;2.33;;;;;;;;;;4978267;28;20418;-64
2023/09/24 00:11:25;;;;;;;4.07;1.80;;;;;;;;;;4971545;28;20058;-65
2023/09/24 00:13:51;;;;;;;4.63;2.00;;;;;;;;;;4979282;28;20142;-64
2023/09/24 00:16:18;;;;;;;4.90;2.00;;;;;;;;;;4976186;28;20047;-65
2023/09/24 00:18:45;;;;;;;4.05;2.00;;;;;;;;;;4977630;28;20054;-65
2023/09/24 00:21:12;;;;;;;3.72;2.30;;;;;;;;;;4973107;28;20046;-65
2023/09/24 00:23:39;;;;;;;4.53;2.00;;;;;;;;;;4961783;28;20070;-65
2023/09/24 00:26:06;;;;;;;3.15;1.77;;;;;;;;;;4970000;28;20051;-65
2023/09/24 00:28:33;;;;;;;3.75;1.80;;;;;;;;;;4960815;28;20043;-65
2023/09/24 00:31:00;;;;;;;4.03;2.00;;;;;;;;;;4969603;28;20089;-66
2023/09/24 00:33:29;;;;;;;4.65;1.98;;;;;;;;;;4961319;28;20138;-65
2023/09/24 00:35:58;;;;;;;4.80;2.03;;;;;;;;;;4970430;28;20051;-65
2023/09/24 00:38:24;;;;;;;3.53;2.05;;;;;;;;;;4968226;28;20118;-65
2023/09/24 00:40:51;;;;;;;4.55;1.80;;;;;;;;;;4959152;28;20122;-65
2023/09/24 00:43:29;;;;;;;3.70;1.75;;;;;;;;;;4962615;28;20043;-65
2023/09/24 00:45:57;;;;;;;3.92;1.75;;;;;;;;;;4963665;28;20063;-65
2023/09/24 00:48:27;;;;;;;3.70;1.70;;;;;;;;;;4957859;28;20047;-68
2023/09/24 00:50:54;;;;;;;;;;;;;;;;;;4961833;28;20542;-64
2023/09/24 00:53:23;;;;;;;4.25;2.10;;;;;;;;;;4972276;28;20013;-64
2023/09/24 00:55:50;;;;;;;4.78;2.25;;;;;;;;;;4961877;28;20413;-64
2023/09/24 00:58:16;;;;;;;3.35;1.80;;;;;;;;;;4959678;28;20110;-64
2023/09/24 01:00:46;;;;;;;4.30;1.90;;;;;;;;;;4965613;28;20043;-65
2023/09/24 01:03:13;;;;;;;3.88;1.77;;;;;;;;;;4961916;28;20042;-65
2023/09/24 01:05:40;;;;;;;3.70;1.80;;;;;;;;;;4967059;28;20419;-65
2023/09/24 01:08:07;;;;;;;3.97;1.95;;;;;;;;;;4968462;28;20150;-65
2023/09/24 01:10:35;;;;;;;3.83;1.77;;;;;;;;;;4970112;28;20073;-65
2023/09/24 01:13:04;;;;;;;3.85;1.85;;;;;;;;;;4975808;28;20145;-64
2023/09/24 01:15:31;;;;;;;3.92;2.03;;;;;;;;;;4973068;28;20049;-64
2023/09/24 01:18:01;;;;;;;3.53;1.75;;;;;;;;;;4967831;28;20502;-65
2023/09/24 01:20:31;;;;;;;3.83;1.95;;;;;;;;;;4967666;28;20047;-64
2023/09/24 01:23:02;;;;;;;3.88;1.60;;;;;;;;;;4968576;28;20129;-64
2023/09/24 01:25:34;;;;;;;3.85;2.13;;;;;;;;;;4965612;28;20040;-64
2023/09/24 01:28:05;;;;;;;3.63;1.80;;;;;;;;;;4964312;28;20787;-64
2023/09/24 01:30:33;;;;;;;4.50;2.05;;;;;;;;;;4960359;28;20138;-64
2023/09/24 01:32:59;;;;;;;3.60;1.65;;;;;;;;;;4969338;28;20481;-64
2023/09/24 01:35:28;;;;;;;4.20;2.25;;;;;;;;;;4963983;28;20489;-65
2023/09/24 01:37:56;;;;;;;4.55;2.00;;;;;;;;;;4956540;28;20463;-65
2023/09/24 01:40:25;;;;;;;5.40;2.25;;;;;;;;;;4956344;28;20047;-65
2023/09/24 01:42:55;;;;;;;2.45;1.50;;;;;;;;;;4964278;28;20055;-65
2023/09/24 01:45:21;;;;;;;4.28;1.85;;;;;;;;;;4967991;28;20053;-65
2023/09/24 01:47:49;;;;;;;4.10;1.90;;;;;;;;;;4972578;28;20078;-64
2023/09/24 01:50:17;;;;;;;3.08;1.95;;;;;;;;;;4966788;28;20433;-64
2023/09/24 01:52:45;;;;;;;5.25;2.20;;;;;;;;;;4966124;28;20431;-64
2023/09/24 01:55:15;;;;;;;3.05;1.85;;;;;;;;;;4978230;28;20490;-64
2023/09/24 01:57:43;;;;;;;4.53;2.20;;;;;;;;;;4976901;28;20184;-64
2023/09/24 02:00:16;;;;;;;3.30;1.90;;;;;;;;;;4975378;28;20495;-64
2023/09/24 02:02:43;;;;;;;4.43;2.00;;;;;;;;;;4975938;28;20130;-64
2023/09/24 02:05:11;;;;;;;4.78;1.90;;;;;;;;;;4977219;28;20130;-64
2023/09/24 02:07:38;;;;;;;4.65;1.90;;;;;;;;;;4968750;28;20047;-63
2023/09/24 02:10:06;;;;;;;3.08;1.90;;;;;;;;;;4973682;28;20498;-64
2023/09/24 02:12:36;;;;;;;5.30;3.03;;;;;;;;;;4969297;28;20133;-63
2023/09/24 02:15:11;;;;;;;5.95;2.15;;;;;;;;;;4962454;28;20038;-63
2023/09/24 02:17:40;;;;;;;5.03;2.70;;;;;;;;;;4962102;28;20052;-64
2023/09/24 02:20:14;;;;;;;3.95;2.03;;;;;;;;;;4959942;28;20069;-64
2023/09/24 02:22:42;;;;;;;5.80;2.08;;;;;;;;;;4969752;28;20051;-64
2023/09/24 02:25:12;;;;;;;4.65;1.90;;;;;;;;;;4965485;28;20070;-64
2023/09/24 02:27:39;;;;;;;;;;;;;;;;;;4955979;28;20058;-64
2023/09/24 02:30:10;;;;;;;5.20;2.10;;;;;;;;;;4965616;28;19934;-64
2023/09/24 02:32:38;;;;;;;4.55;1.90;;;;;;;;;;4968393;28;20059;-63
2023/09/24 02:35:05;;;;;;;7.45;2.42;;;;;;;;;;4966546;28;20050;-62
2023/09/24 02:37:32;;;;;;;5.60;2.50;;;;;;;;;;4960629;28;20130;-62
2023/09/24 02:39:59;;;;;;;5.10;1.92;;;;;;;;;;4955070;28;20061;-64
2023/09/24 02:42:26;;;;;;;5.32;2.05;;;;;;;;;;4966170;28;20409;-64
2023/09/24 02:44:53;;;;;;;5.15;1.90;;;;;;;;;;4963919;28;20488;-64
2023/09/24 02:47:21;;;;;;;4.18;2.15;;;;;;;;;;4962092;28;20047;-64
2023/09/24 02:49:48;;;;;;;4.43;2.20;;;;;;;;;;4958527;28;20130;-64
2023/09/24 02:52:15;;;;;;;4.85;2.47;;;;;;;;;;4963254;28;20055;-64
2023/09/24 02:54:42;;;;;;;4.90;2.97;;;;;;;;;;4955421;28;20055;-65
2023/09/24 02:57:09;;;;;;;5.40;2.15;;;;;;;;;;4970031;28;20626;-63
2023/09/24 02:59:36;;;;;;;5.78;3.10;;;;;;;;;;4975087;28;20042;-64
2023/09/24 03:02:02;;;;;;;4.22;2.53;;;;;;;;;;4963364;28;20059;-61
2023/09/24 03:04:30;;;;;;;6.35;3.72;;;;;;;;;;4974443;28;20078;-62
2023/09/24 03:06:57;;;;;;;5.35;2.55;;;;;;;;;;4960738;28;20499;-64
2023/09/24 03:09:25;;;;;;;4.43;2.50;;;;;;;;;;4973421;28;20467;-63
2023/09/24 03:11:51;;;;;;;3.95;2.08;;;;;;;;;;4974206;28;20601;-62
2023/09/24 03:14:18;;;;;;;4.30;2.53;;;;;;;;;;4974278;28;20051;-64
2023/09/24 03:16:45;;;;;;;4.35;3.13;;;;;;;;;;4973868;28;20446;-64
2023/09/24 03:19:12;;;;;;;5.20;2.30;;;;;;;;;;4973824;28;20105;-64
2023/09/24 03:21:40;;;;;;;3.92;2.05;;;;;;;;;;4973566;28;20129;-64
2023/09/24 03:24:10;;;;;;;5.35;2.58;;;;;;;;;;4964028;28;20125;-64
2023/09/24 03:26:37;;;;;;;4.55;2.45;;;;;;;;;;4955293;28;20048;-62
2023/09/24 03:29:04;;;;;;;4.32;2.40;;;;;;;;;;4967432;28;20507;-62
2023/09/24 03:31:32;;;;;;;6.88;4.18;;;;;;;;;;4964402;28;20057;-64
2023/09/24 03:33:59;;;;;;;8.93;4.60;;;;;;;;;;4966663;28;20055;-64
2023/09/24 03:36:26;;;;;;;6.60;4.70;;;;;;;;;;4967579;28;20046;-64
2023/09/24 03:38:54;;;;;;;8.27;4.40;;;;;;;;;;4963609;28;20043;-64
2023/09/24 03:41:22;;;;;;;7.18;4.28;;;;;;;;;;4968596;28;20125;-64
2023/09/24 03:43:49;;;;;;;7.03;4.45;;;;;;;;;;4961352;28;20523;-64
2023/09/24 03:46:16;;;;;;;6.32;3.92;;;;;;;;;;4964189;28;20487;-64
2023/09/24 03:48:43;;;;;;;7.05;4.60;;;;;;;;;;4955469;28;20078;-64
2023/09/24 03:51:10;;;;;;;7.93;4.10;;;;;;;;;;4959751;28;20082;-64
2023/09/24 03:53:37;;;;;;;7.13;3.50;;;;;;;;;;4959733;28;20122;-64
2023/09/24 03:56:07;;;;;;;5.55;2.63;;;;;;;;;;4962799;28;20050;-64
2023/09/24 03:58:33;;;;;;;4.78;2.67;;;;;;;;;;4955120;28;20111;-64
2023/09/24 04:01:08;;;;;;;4.95;2.35;;;;;;;;;;4966587;28;20585;-64
2023/09/24 04:03:35;;;;;;;4.70;2.55;;;;;;;;;;4968734;28;20055;-64
2023/09/24 04:06:08;;;;;;;4.38;2.30;;;;;;;;;;4969330;28;20129;-64
2023/09/24 04:08:35;;;;;;;5.32;2.65;;;;;;;;;;4963173;28;20039;-64
2023/09/24 04:11:01;;;;;;;6.00;2.38;;;;;;;;;;4957207;28;20098;-64
2023/09/24 04:13:29;;;;;;;5.05;2.28;;;;;;;;;;4967495;28;20141;-64
2023/09/24 04:15:56;;;;;;;5.00;2.58;;;;;;;;;;4961762;28;20049;-63
2023/09/24 04:18:23;;;;;;;4.97;2.30;;;;;;;;;;4960144;28;20082;-64
2023/09/24 04:20:52;;;;;;;3.92;1.85;;;;;;;;;;4957058;28;20121;-64
2023/09/24 04:23:18;;;;;;;3.70;1.88;;;;;;;;;;4961880;28;20484;-64
2023/09/24 04:25:45;;;;;;;4.00;1.90;;;;;;;;;;4965391;28;20138;-64
2023/09/24 04:28:13;;;;;;;4.80;2.00;;;;;;;;;;4957299;28;20085;-64
2023/09/24 04:30:41;;;;;;;3.83;2.10;;;;;;;;;;4953179;28;20106;-64
2023/09/24 04:33:08;;;;;;;5.10;2.30;;;;;;;;;;4955844;28;20478;-64
2023/09/24 04:35:35;;;;;;;4.10;1.95;;;;;;;;;;4954244;28;20123;-64
2023/09/24 04:38:01;;;;;;;4.28;2.15;;;;;;;;;;4952798;28;20547;-64
2023/09/24 04:40:28;;;;;;;4.57;2.10;;;;;;;;;;4955951;28;20086;-64
2023/09/24 04:42:55;;;;;;;3.85;2.22;;;;;;;;;;4953145;28;20094;-64
2023/09/24 04:45:22;;;;;;;4.82;2.08;;;;;;;;;;4953450;28;20677;-64
2023/09/24 04:47:50;;;;;;;4.07;2.03;;;;;;;;;;4953046;28;20142;-64
2023/09/24 04:50:16;;;;;;;4.90;2.33;;;;;;;;;;4964460;28;20126;-64
2023/09/24 04:52:47;;;;;;;5.40;2.13;;;;;;;;;;4972562;28;20057;-64
2023/09/24 04:55:13;;;;;;;3.75;2.20;;;;;;;;;;4972314;28;20050;-64
2023/09/24 04:57:40;;;;;;;5.85;3.10;;;;;;;;;;4972368;28;20134;-64
2023/09/24 05:00:10;;;;;;;4.35;2.53;;;;;;;;;;4972141;28;20126;-64
2023/09/24 05:02:37;;;;;;;4.20;2.00;;;;;;;;;;4972429;28;20097;-64
2023/09/24 05:05:06;;;;;;;4.47;2.00;;;;;;;;;;4972331;28;20546;-64
2023/09/24 05:07:33;;;;;;;4.15;2.45;;;;;;;;;;4958983;28;20134;-64
2023/09/24 05:10:00;;;;;;;5.32;2.40;;;;;;;;;;4971622;28;20101;-64
2023/09/24 05:12:26;;;;;;;4.68;2.50;;;;;;;;;;4991181;28;20201;-64
2023/09/24 05:14:53;;;;;;;5.00;2.85;;;;;;;;;;4967412;28;20093;-64
2023/09/24 05:17:20;;;;;;;6.13;3.22;;;;;;;;;;4961599;28;20133;-64
2023/09/24 05:19:46;;;;;;;6.57;3.30;;;;;;;;;;4960755;28;20130;-64
2023/09/24 05:22:14;;;;;;;6.80;2.70;;;;;;;;;;4964011;28;20110;-64
2023/09/24 05:24:41;;;;;;;4.40;2.20;;;;;;;;;;4964429;28;20475;-64
2023/09/24 05:27:08;;;;;;;4.88;2.53;;;;;;;;;;4961802;28;20046;-64
2023/09/24 05:29:35;;;;;;;4.68;2.30;;;;;;;;;;4960985;28;20058;-64
2023/09/24 05:32:02;;;;;;;5.97;2.80;;;;;;;;;;4960556;28;20485;-64
2023/09/24 05:34:29;;;;;;;4.20;2.17;;;;;;;;;;4960862;28;20055;-64
2023/09/24 05:36:55;;;;;;;4.50;2.25;;;;;;;;;;4960727;28;20138;-64
2023/09/24 05:39:23;;;;;;;5.00;3.03;;;;;;;;;;4960636;28;20272;-63
2023/09/24 05:41:50;;;;;;;3.92;2.10;;;;;;;;;;4960669;28;20047;-64
2023/09/24 05:44:17;;;;;;;5.15;2.60;;;;;;;;;;4964148;28;20518;-63
2023/09/24 05:46:44;;;;;;;5.82;3.20;;;;;;;;;;4963973;28;20470;-63
2023/09/24 05:49:11;;;;;;;4.35;2.40;;;;;;;;;;4961049;28;20127;-64
2023/09/24 05:51:37;;;;;;;4.78;2.50;;;;;;;;;;4973340;28;20499;-63
2023/09/24 05:54:04;;;;;;;3.95;2.50;;;;;;;;;;4986112;28;20053;-64
2023/09/24 05:56:32;;;;;;;4.32;2.60;;;;;;;;;;4988257;28;20051;-64
2023/09/24 05:58:59;;;;;;;6.15;2.90;;;;;;;;;;4982035;28;20327;-65
2023/09/24 06:01:26;;;;;;;4.93;2.35;;;;;;;;;;4988938;28;20513;-63
2023/09/24 06:03:52;;;;;;;5.68;2.47;;;;;;;;;;4959736;28;20058;-63
2023/09/24 06:06:19;;;;;;;5.03;2.63;;;;;;;;;;4967387;28;20081;-65
2023/09/24 06:08:46;;;;;;;5.57;3.33;;;;;;;;;;4989283;28;20100;-63
2023/09/24 06:11:12;;;;;;;5.43;3.83;;;;;;;;;;4971529;28;20143;-64
2023/09/24 06:13:41;;;;;;;4.60;3.45;;;;;;;;;;4970105;28;20537;-64
2023/09/24 06:16:08;;;;;;;4.78;3.22;;;;;;;;;;4966830;28;20412;-64
2023/09/24 06:18:34;;;;;;;5.65;3.63;;;;;;;;;;4966899;28;20086;-65
2023/09/24 06:21:02;;;;;;;4.38;2.50;;;;;;;;;;4965463;28;20470;-64
2023/09/24 06:23:29;;;;;;;4.35;2.42;;;;;;;;;;4961026;28;20050;-64
2023/09/24 06:25:56;;;;;;;5.20;2.78;;;;;;;;;;4966127;28;20134;-65
2023/09/24 06:28:24;;;;;;;5.10;2.58;;;;;;;;;;4983213;28;20051;-64
2023/09/24 06:30:59;;;;;;;4.85;2.80;;;;;;;;;;4977249;28;20079;-64
2023/09/24 06:33:25;;;;;;;4.30;2.42;;;;;;;;;;4961686;28;20414;-64
2023/09/24 06:35:52;;;;;;;7.05;3.33;;;;;;;;;;4970815;28;20635;-64
2023/09/24 06:38:19;;;;;;;4.57;2.55;;;;;;;;;;4969845;28;20047;-64
2023/09/24 06:40:45;;;;;;;5.15;2.97;;;;;;;;;;4966283;28;20426;-64
2023/09/24 06:43:12;;;;;;;4.75;2.25;;;;;;;;;;4963413;28;20079;-64
2023/09/24 06:45:39;;;;;;;4.40;2.30;;;;;;;;;;4963293;28;20134;-64
2023/09/24 06:48:07;;;;;;;5.60;2.72;;;;;;;;;;4965081;28;20484;-64
2023/09/24 06:50:34;;;;;;;4.43;2.53;;;;;;;;;;4966351;28;20479;-64
2023/09/24 06:53:01;;;;;;;4.65;2.30;;;;;;;;;;4965014;28;20391;-64
2023/09/24 06:55:28;;;;;;;4.82;2.30;;;;;;;;;;4961301;28;20303;-64
2023/09/24 06:57:55;;;;;;;5.22;2.80;;;;;;;;;;4965189;28;20054;-64
2023/09/24 07:00:22;;;;;;;3.78;2.75;;;;;;;;;;4969167;28;20046;-64
2023/09/24 07:02:48;;;;;;;7.90;3.05;;;;;;;;;;4983170;28;20471;-66
2023/09/24 07:05:17;;;;;;;4.63;2.63;;;;;;;;;;4962813;28;20118;-65
2023/09/24 07:07:44;;;;;;;4.95;2.90;;;;;;;;;;4954630;28;20047;-65
2023/09/24 07:10:11;;;;;;;8.20;3.72;;;;;;;;;;4965224;28;20141;-65
2023/09/24 07:12:38;;;;;;;5.00;2.78;;;;;;;;;;4967758;28;20139;-65
2023/09/24 07:15:07;;;;;;;5.18;3.28;;;;;;;;;;4959482;28;20051;-64
2023/09/24 07:17:33;;;;;;;5.40;3.20;;;;;;;;;;4964767;28;20105;-65
2023/09/24 07:20:00;;;;;;;5.45;3.10;;;;;;;;;;4963669;28;20147;-65
2023/09/24 07:22:28;;;;;;;5.70;2.78;;;;;;;;;;4965353;28;20050;-65
2023/09/24 07:24:55;;;;;;;4.05;2.83;;;;;;;;;;4965375;28;20459;-65
2023/09/24 07:27:22;;;;;;;5.13;3.00;;;;;;;;;;4966745;28;20105;-63
2023/09/24 07:29:48;;;;;;;6.13;2.80;;;;;;;;;;4965382;28;20051;-63
2023/09/24 07:32:15;;;;;;;5.60;2.50;;;;;;;;;;4962248;28;20070;-64
2023/09/24 07:34:42;;;;;;;4.63;2.75;;;;;;;;;;4969125;28;20042;-64
2023/09/24 07:37:08;;;;;;;5.72;3.20;;;;;;;;;;4965387;28;20056;-65
2023/09/24 07:39:36;;;;;;;4.75;2.90;;;;;;;;;;4959378;28;20055;-64
2023/09/24 07:42:04;;;;;;;4.35;2.75;;;;;;;;;;4957454;28;20436;-65
2023/09/24 07:44:30;;;;;;;3.72;2.20;;;;;;;;;;4973526;28;20187;-65
2023/09/24 07:46:57;;;;;;;5.35;2.85;;;;;;;;;;4961635;28;20055;-65
2023/09/24 07:49:24;;;;;;;6.03;2.83;;;;;;;;;;4965579;28;20086;-65
2023/09/24 07:51:50;;;;;;;5.82;2.90;;;;;;;;;;4973041;28;20046;-64
2023/09/24 07:54:17;;;;;;;5.07;2.65;;;;;;;;;;4965736;28;20125;-65
2023/09/24 07:56:45;;;;;;;5.47;3.03;;;;;;;;;;4968937;28;20047;-66
2023/09/24 07:59:12;;;;;;;4.97;2.58;;;;;;;;;;4964413;28;20485;-64
2023/09/24 08:01:39;;;;;;;6.45;3.00;;;;;;;;;;4972565;28;20126;-64
2023/09/24 08:04:06;;;;;;;5.82;2.70;;;;;;;;;;4981693;28;20538;-65
2023/09/24 08:06:32;;;;;;;4.78;2.30;;;;;;;;;;4982779;28;20050;-65
2023/09/24 08:08:59;;;;;;;4.60;2.42;;;;;;;;;;4981634;28;20169;-64
2023/09/24 08:11:26;;;;;;;6.38;2.95;;;;;;;;;;4968921;28;20042;-66
2023/09/24 08:13:54;;;;;;;4.20;2.20;;;;;;;;;;4978870;28;20406;-65
2023/09/24 08:16:21;;;;;;;7.47;2.97;;;;;;;;;;4976798;28;20418;-66
2023/09/24 08:18:49;;;;;;;5.90;2.30;;;;;;;;;;4968087;28;20105;-63
2023/09/24 08:21:16;;;;;;;5.07;2.80;;;;;;;;;;4970429;28;20051;-64
2023/09/24 08:23:45;;;;;;;5.50;2.00;;;;;;;;;;4970534;28;20047;-65
2023/09/24 08:26:11;;;;;;;6.45;2.20;;;;;;;;;;4963668;28;20058;-64
2023/09/24 08:28:38;;;;;;;5.38;2.60;;;;;;;;;;4964176;28;20047;-65
2023/09/24 08:31:10;;;;;;;5.63;2.53;;;;;;;;;;4964670;28;20050;-66
2023/09/24 08:33:37;;;;;;;7.43;2.17;;;;;;;;;;4967407;28;20125;-66
2023/09/24 08:36:08;;;;;;;5.93;2.42;;;;;;;;;;4965953;28;20053;-65
2023/09/24 08:38:35;;;;;;;4.53;2.10;;;;;;;;;;4969676;28;20042;-70
2023/09/24 08:41:03;;;;;;;4.55;2.40;;;;;;;;;;4966399;28;20476;-65
2023/09/24 08:43:31;;;;;;;6.75;2.40;;;;;;;;;;4964993;28;20499;-69
2023/09/24 08:45:58;;;;;;;4.07;2.00;;;;;;;;;;4974339;28;20054;-65
2023/09/24 08:48:29;;;;;;;6.10;2.90;;;;;;;;;;4961802;28;20038;-66
2023/09/24 08:50:57;;;;;;;9.15;4.90;;;;;;;;;;4963554;28;20147;-67
2023/09/24 08:53:27;;;;;;;15.27;7.25;;;;;;;;;;4973124;28;20571;-65
2023/09/24 08:55:55;;;;;;;6.35;3.17;;;;;;;;;;4968486;28;20459;-69
2023/09/24 08:58:22;;;;;;;6.97;3.55;;;;;;;;;;4965462;28;20055;-67
2023/09/24 09:00:51;;;;;;;6.97;2.60;;;;;;;;;;4961125;28;20439;-65
2023/09/24 09:03:19;;;;;;;8.45;2.17;;;;;;;;;;4966119;28;20067;-65
2023/09/24 09:05:48;;;;;;;5.47;1.83;;;;;;;;;;4968660;28;20051;-66
2023/09/24 09:08:14;;;;;;;5.13;2.10;;;;;;;;;;4975763;28;20051;-65
2023/09/24 09:10:42;;;;;;;7.45;3.85;;;;;;;;;;4971028;28;20141;-65
2023/09/24 09:13:10;;;;;;;5.68;2.30;;;;;;;;;;4978553;28;20557;-65
2023/09/24 09:15:38;;;;;;;4.95;2.08;;;;;;;;;;4981188;28;20130;-66
2023/09/24 09:18:05;;;;;;;5.53;2.00;;;;;;;;;;4971008;28;20503;-65
2023/09/24 09:20:43;;;;;;;6.00;2.03;;;;;;;;;;4960324;28;20138;-66
2023/09/24 09:23:12;;;;;;;4.50;1.92;;;;;;;;;;4969200;28;20125;-66
2023/09/24 09:25:52;;;;;;;4.10;1.85;;;;;;;;;;4965043;28;20079;-65
2023/09/24 09:28:23;;;;;;;5.82;1.73;;;;;;;;;;4969376;28;20463;-66
2023/09/24 09:31:05;;;;;;;5.63;1.90;;;;;;;;;;4971704;28;20043;-65
2023/09/24 09:33:34;;;;;;;5.10;2.00;;;;;;;;;;4965758;28;20047;-65
2023/09/24 09:36:01;;;;;;;5.05;2.13;;;;;;;;;;4977922;28;20140;-65
2023/09/24 09:38:30;;;;;;;5.13;1.65;;;;;;;;;;4971143;28;20491;-66
2023/09/24 09:40:58;;;;;;;5.45;2.22;;;;;;;;;;4982165;28;20056;-65
2023/09/24 09:43:26;;;;;;;3.70;1.30;;;;;;;;;;4976729;28;20079;-66
2023/09/24 09:45:55;;;;;;;4.32;2.08;;;;;;;;;;4977022;28;20515;-66
2023/09/24 09:48:29;;;;;;;7.55;1.88;;;;;;;;;;4971669;28;20076;-67
2023/09/24 09:51:02;;;;;;;5.40;1.30;;;;;;;;;;4966231;28;20074;-65
2023/09/24 09:53:33;;;;;;;5.07;2.28;;;;;;;;;;4966899;28;20043;-65
2023/09/24 09:56:01;;;;;;;5.78;2.65;;;;;;;;;;4976898;28;20134;-65
2023/09/24 09:58:31;;;;;;;4.80;1.70;;;;;;;;;;4970834;28;20495;-65
2023/09/24 10:00:59;;;;;;;4.38;1.58;;;;;;;;;;4974857;28;20439;-65
2023/09/24 10:03:27;;;;;;;3.90;2.00;;;;;;;;;;4970214;28;20047;-65
2023/09/24 10:05:55;;;;;;;7.38;2.60;;;;;;;;;;4966862;28;20423;-68
2023/09/24 10:08:53;;;;;;;4.63;2.90;;;;;;;;;;4969567;28;20054;-68
2023/09/24 10:11:52;;;;;;;5.13;2.17;;;;;;;;;;4968809;28;20134;-69
2023/09/24 10:14:32;;;;;;;4.50;2.20;;;;;;;;;;4961761;28;20049;-64
2023/09/24 10:17:21;;;;;;;5.80;2.00;;;;;;;;;;4963038;28;20051;-63
2023/09/24 10:19:49;;;;;;;4.40;1.90;;;;;;;;;;4973714;28;20055;-65
2023/09/24 10:22:29;;;;;;;3.80;1.60;;;;;;;;;;4976998;28;20043;-65
2023/09/24 10:24:58;;;;;;;4.20;2.17;;;;;;;;;;4966166;28;20082;-65
2023/09/24 10:27:26;;;;;;;4.45;2.00;;;;;;;;;;4968015;28;20149;-65
2023/09/24 10:30:07;;;;;;;3.83;2.13;;;;;;;;;;4974108;28;20134;-64
2023/09/24 10:32:50;;;;;;;7.00;2.50;;;;;;;;;;4963443;28;20098;-64
2023/09/24 10:35:18;;;;;;;5.78;2.38;;;;;;;;;;4963453;28;20055;-65
2023/09/24 10:38:05;;;;;;;5.40;2.08;;;;;;;;;;4961900;28;20090;-64
2023/09/24 10:40:34;;;;;;;4.90;2.10;;;;;;;;;;4969033;28;20055;-65
2023/09/24 10:43:18;;;;;;;3.70;1.95;;;;;;;;;;4963340;28;20047;-65
2023/09/24 10:45:46;;;;;;;3.97;2.25;;;;;;;;;;4955553;28;20522;-65
2023/09/24 10:48:14;;;;;;;3.88;1.60;;;;;;;;;;4955075;28;20138;-65
2023/09/24 10:50:41;;;;;;;4.53;2.13;;;;;;;;;;4955140;28;20104;-65
2023/09/24 10:53:09;;;;;;;5.57;1.92;;;;;;;;;;4965275;28;20495;-65
2023/09/24 10:55:39;;;;;;;4.03;1.67;;;;;;;;;;4966750;28;20129;-64
2023/09/24 10:58:11;;;;;;;4.38;1.50;;;;;;;;;;4956333;28;20057;-65
2023/09/24 11:00:38;;;;;;;4.82;1.90;;;;;;;;;;4961292;28;20404;-64
2023/09/24 11:03:07;;;;;;;4.82;1.90;;;;;;;;;;4958237;28;20139;-65
2023/09/24 11:05:36;;;;;;;5.70;2.60;;;;;;;;;;4968546;28;20499;-65
2023/09/24 11:08:03;;;;;;;12.00;5.05;;;;;;;;;;4956494;28;20363;-65
2023/09/24 11:10:29;;;;;;;5.78;1.98;;;;;;;;;;4961122;28;20079;-64
2023/09/24 11:13:00;;;;;;;4.30;1.60;;;;;;;;;;4970904;28;20125;-64
2023/09/24 11:15:30;;;;;;;;;;;;;;;;;;4955377;28;20621;-65
2023/09/24 11:17:56;;;;;;;7.47;2.50;;;;;;;;;;4955294;28;19929;-65
2023/09/24 11:20:24;;;;;;;3.72;1.58;;;;;;;;;;4966179;28;20071;-65
2023/09/24 11:22:58;;;;;;;3.15;1.27;;;;;;;;;;4973895;28;20133;-64
2023/09/24 11:25:25;;;;;;;3.75;1.55;;;;;;;;;;4958825;28;20058;-64
2023/09/24 11:27:53;;;;;;;4.70;1.58;;;;;;;;;;4973904;28;20422;-63
2023/09/24 11:30:22;;;;;;;3.90;1.95;;;;;;;;;;4965693;28;20130;-62
2023/09/24 11:32:51;;;;;;;6.30;2.42;;;;;;;;;;4958122;28;20093;-62
2023/09/24 11:35:18;;;;;;;5.50;1.75;;;;;;;;;;4962625;28;20122;-63
2023/09/24 11:37:50;;;;;;;4.85;1.27;;;;;;;;;;4954369;28;20142;-62
2023/09/24 11:40:27;;;;;;;4.07;1.83;;;;;;;;;;4965313;28;20146;-62
2023/09/24 11:42:56;;;;;;;3.80;1.50;;;;;;;;;;4973051;28;20130;-63
2023/09/24 11:45:38;;;;;;;3.17;1.40;;;;;;;;;;4954642;28;20460;-63
2023/09/24 11:48:06;;;;;;;6.43;1.60;;;;;;;;;;4963216;28;20240;-63
2023/09/24 11:50:32;;;;;;;5.45;1.83;;;;;;;;;;4967696;28;20094;-63
2023/09/24 11:53:01;;;;;;;4.22;1.60;;;;;;;;;;4953993;28;20316;-62
2023/09/24 11:55:27;;;;;;;5.13;1.50;;;;;;;;;;4954028;28;20130;-63
2023/09/24 11:57:54;;;;;;;4.45;1.73;;;;;;;;;;4954022;28;20082;-62
2023/09/24 12:00:22;;;;;;;4.13;1.70;;;;;;;;;;4954078;28;20094;-63
2023/09/24 12:02:50;;;;;;;4.35;1.70;;;;;;;;;;4962064;28;20051;-63
2023/09/24 12:05:17;;;;;;;3.67;1.67;;;;;;;;;;4969974;28;20055;-60
2023/09/24 12:07:43;;;;;;;4.05;1.70;;;;;;;;;;4960688;28;20137;-62
2023/09/24 12:10:10;;;;;;;4.07;1.58;;;;;;;;;;4956875;28;20400;-62
2023/09/24 12:12:37;;;;;;;2.83;1.35;;;;;;;;;;4959120;28;20456;-62
2023/09/24 12:15:04;;;;;;;3.90;1.48;;;;;;;;;;4963183;28;20053;-63
2023/09/24 12:17:30;;;;;;;3.67;1.50;;;;;;;;;;4964979;28;20050;-63
2023/09/24 12:19:58;;;;;;;4.32;1.75;;;;;;;;;;4964006;28;20054;-62
2023/09/24 12:22:25;;;;;;;3.10;1.50;;;;;;;;;;4966463;28;20490;-63
2023/09/24 12:24:52;;;;;;;3.03;1.20;;;;;;;;;;4965248;28;20422;-64
2023/09/24 12:27:18;;;;;;;4.32;1.42;;;;;;;;;;4961636;28;20426;-64
2023/09/24 12:29:45;;;;;;;5.32;1.65;;;;;;;;;;4953624;28;20470;-64
2023/09/24 12:32:12;;;;;;;3.80;1.27;;;;;;;;;;4956195;28;21576;-63
2023/09/24 12:34:38;;;;;;;4.50;1.52;;;;;;;;;;4966022;28;20090;-65
2023/09/24 12:37:06;;;;;;;4.80;1.60;;;;;;;;;;4958346;28;20377;-63
2023/09/24 12:39:33;;;;;;;3.10;1.45;;;;;;;;;;4967125;28;20507;-63
2023/09/24 12:42:00;;;;;;;3.47;1.30;;;;;;;;;;4960872;28;20496;-63
2023/09/24 12:44:26;;;;;;;3.53;1.35;;;;;;;;;;4967108;28;20557;-63
2023/09/24 12:46:55;;;;;;;4.07;1.50;;;;;;;;;;4976579;28;20078;-64
2023/09/24 12:49:22;;;;;;;5.00;1.60;;;;;;;;;;4966878;28;20043;-64
2023/09/24 12:51:48;;;;;;;5.82;1.40;;;;;;;;;;4972232;28;20399;-63
2023/09/24 12:54:16;;;;;;;3.65;1.20;;;;;;;;;;4970689;28;20047;-64
2023/09/24 12:56:43;;;;;;;3.95;1.40;;;;;;;;;;4976860;28;20137;-63
2023/09/24 12:59:10;;;;;;;3.70;1.23;;;;;;;;;;4977361;28;20077;-63
2023/09/24 13:01:36;;;;;;;3.88;1.58;;;;;;;;;;4975042;28;20130;-64
2023/09/24 13:04:03;;;;;;;3.95;1.40;;;;;;;;;;4977569;28;20062;-64
2023/09/24 13:06:30;;;;;;;3.75;1.50;;;;;;;;;;4970780;28;20094;-64
2023/09/24 13:08:57;;;;;;;3.88;1.48;;;;;;;;;;4972947;28;20522;-64
2023/09/24 13:11:25;;;;;;;5.00;1.55;;;;;;;;;;4972719;28;20426;-64
2023/09/24 13:13:52;;;;;;;2.92;1.20;;;;;;;;;;4965956;28;20051;-64
2023/09/24 13:16:18;;;;;;;5.18;1.60;;;;;;;;;;4973622;28;20491;-64
2023/09/24 13:18:45;;;;;;;4.28;1.60;;;;;;;;;;4975411;28;20085;-64
2023/09/24 13:21:12;;;;;;;4.40;1.60;;;;;;;;;;4969186;28;20047;-64
2023/09/24 13:23:38;;;;;;;3.75;1.42;;;;;;;;;;4977313;28;20045;-64
2023/09/24 13:26:05;;;;;;;3.78;1.40;;;;;;;;;;4969913;28;20061;-64
2023/09/24 13:28:33;;;;;;;3.45;1.50;;;;;;;;;;4976217;28;20394;-64
2023/09/24 13:31:00;;;;;;;3.30;1.77;;;;;;;;;;4975438;28;20038;-64
2023/09/24 13:33:27;;;;;;;3.55;1.30;;;;;;;;;;4975796;28;20057;-64
2023/09/24 13:35:53;;;;;;;3.85;1.60;;;;;;;;;;4972771;28;20051;-62
2023/09/24 13:38:20;;;;;;;4.15;1.88;;;;;;;;;;4966331;28;20053;-63
2023/09/24 13:40:47;;;;;;;3.30;1.63;;;;;;;;;;4974337;28;20153;-63
2023/09/24 13:43:13;;;;;;;4.03;1.50;;;;;;;;;;4973270;28;20462;-63
2023/09/24 13:45:42;;;;;;;3.80;1.60;;;;;;;;;;4975776;28;20470;-64
2023/09/24 13:48:10;;;;;;;5.65;2.00;;;;;;;;;;4972970;28;20133;-63
2023/09/24 13:50:36;;;;;;;5.88;2.03;;;;;;;;;;4973445;28;20065;-63
2023/09/24 13:53:04;;;;;;;5.00;1.63;;;;;;;;;;4977884;28;20504;-63
2023/09/24 13:55:34;;;;;;;5.70;1.83;;;;;;;;;;4969122;28;20051;-64
2023/09/24 13:58:01;;;;;;;;;;;;;;;;;;4971992;28;20081;-63
2023/09/24 14:00:28;;;;;;;2.92;1.27;;;;;;;;;;4971156;28;20024;-63
2023/09/24 14:02:56;;;;;;;3.92;2.05;;;;;;;;;;4970847;28;20049;-63
2023/09/24 14:05:23;;;;;;;3.72;1.48;;;;;;;;;;4972019;28;20142;-63
2023/09/24 14:07:59;;;;;;;4.25;1.70;;;;;;;;;;4976387;28;20145;-63
2023/09/24 14:13:10;;;;;;;5.00;1.90;;;;;;;;;;4970200;28;20705;-63
2023/09/24 14:15:37;;;;;;;3.90;1.63;;;;;;;;;;4974884;28;20133;-63
2023/09/24 14:18:06;;;;;;;3.60;1.55;;;;;;;;;;4973212;28;20171;-63
2023/09/24 14:20:32;;;;;;;3.60;1.60;;;;;;;;;;4974726;28;20051;-63
2023/09/24 14:22:59;;;;;;;5.00;1.63;;;;;;;;;;4972025;28;20073;-63
2023/09/24 14:25:26;;;;;;;4.13;1.58;;;;;;;;;;4970123;28;20074;-63
2023/09/24 14:27:52;;;;;;;4.32;1.70;;;;;;;;;;4972129;28;20082;-63
2023/09/24 14:30:19;;;;;;;2.97;1.20;;;;;;;;;;4970269;28;20414;-63
2023/09/24 14:32:46;;;;;;;4.47;1.40;;;;;;;;;;4978950;28;21050;-64
2023/09/24 14:35:14;;;;;;;4.28;1.40;;;;;;;;;;4977125;28;20576;-64
2023/09/24 14:37:41;;;;;;;4.55;1.60;;;;;;;;;;4971833;28;20067;-64
2023/09/24 14:40:10;;;;;;;3.17;1.48;;;;;;;;;;4971827;28;20424;-64
2023/09/24 14:42:36;;;;;;;4.35;1.50;;;;;;;;;;4972180;28;20145;-64
2023/09/24 14:45:04;;;;;;;3.75;1.58;;;;;;;;;;4972649;28;20130;-64
2023/09/24 14:47:30;;;;;;;3.95;1.48;;;;;;;;;;4971787;28;20458;-64
2023/09/24 14:49:59;;;;;;;4.88;2.03;;;;;;;;;;4975541;28;20101;-63
2023/09/24 14:52:27;;;;;;;3.55;1.45;;;;;;;;;;4977285;28;20390;-63